Time;durP1;ratioP1;P1;durP2;ratioP2;P2;SDS_P1;SDS_P2;PMS_P1;PMS_P2;Temp;Humidity;BMP_temperature;BMP_pressure;BME280_temperature;BME280_humidity;BME280_pressure;Samples;Min_cycle;Max_cycle;Signal;HPM_P1;HPM_P2
2023/03/07 04:00:22;;;;;;;9.98;1.35;;;3.20;99.90;;;;;;6270040;22;20525;-78
2023/03/07 04:02:48;;;;;;;9.02;1.33;;;3.30;99.90;;;;;;6307298;22;20060;-77
2023/03/07 04:05:14;;;;;;;7.43;1.40;;;3.30;99.90;;;;;;6280274;22;20053;-76
2023/03/07 04:07:39;;;;;;;17.88;2.33;;;3.30;99.90;;;;;;6280172;22;20394;-78
2023/03/07 04:10:05;;;;;;;8.32;1.08;;;3.30;99.90;;;;;;6280750;22;20015;-78
2023/03/07 04:12:31;;;;;;;10.27;1.83;;;3.30;99.90;;;;;;6280364;22;20463;-77
2023/03/07 04:14:57;;;;;;;10.45;1.13;;;3.30;99.90;;;;;;6307960;22;20049;-77
2023/03/07 04:17:22;;;;;;;14.35;1.58;;;3.30;99.90;;;;;;6280775;22;20011;-76
2023/03/07 04:19:48;;;;;;;9.77;1.10;;;3.30;99.90;;;;;;6308149;22;20019;-77
2023/03/07 04:22:13;;;;;;;10.13;1.27;;;3.30;99.90;;;;;;6307568;22;20098;-76
2023/03/07 04:24:39;;;;;;;13.70;1.92;;;3.30;99.90;;;;;;6307972;22;20033;-77
2023/03/07 04:27:06;;;;;;;8.15;1.80;;;3.30;99.90;;;;;;6308004;22;20430;-76
2023/03/07 04:29:32;;;;;;;7.80;1.00;;;3.30;99.90;;;;;;6280086;22;20336;-77
2023/03/07 04:31:57;;;;;;;14.93;1.40;;;3.30;99.90;;;;;;6307678;22;20045;-78
2023/03/07 04:34:23;;;;;;;8.15;1.00;;;3.30;99.90;;;;;;6280987;22;20012;-76
2023/03/07 04:36:49;;;;;;;6.60;0.90;;;3.30;99.90;;;;;;6281293;22;20030;-76
2023/03/07 04:39:15;;;;;;;7.60;1.27;;;3.30;99.90;;;;;;6257385;22;20046;-79
2023/03/07 04:41:40;;;;;;;10.98;1.40;;;3.30;99.90;;;;;;6281750;22;20003;-76
2023/03/07 04:44:06;;;;;;;6.60;1.02;;;3.30;99.90;;;;;;6281927;22;20109;-77
2023/03/07 04:46:32;;;;;;;7.82;1.52;;;3.30;99.90;;;;;;6281741;22;20433;-78
2023/03/07 04:48:57;;;;;;;9.93;1.70;;;3.30;99.90;;;;;;6309273;22;20046;-76
2023/03/07 04:51:23;;;;;;;12.27;2.05;;;3.30;99.90;;;;;;6281976;22;20007;-77
2023/03/07 04:53:49;;;;;;;11.95;2.22;;;3.30;99.90;;;;;;6282015;22;20046;-76
2023/03/07 04:56:15;;;;;;;11.95;1.52;;;3.30;99.90;;;;;;6309489;22;20011;-75
2023/03/07 04:58:41;;;;;;;10.85;0.95;;;3.30;99.90;;;;;;6309637;22;20062;-75
2023/03/07 05:01:07;;;;;;;5.72;1.33;;;3.30;99.90;;;;;;6256349;22;20500;-75
2023/03/07 05:03:33;;;;;;;8.05;0.90;;;3.30;99.90;;;;;;6282110;22;20047;-75
2023/03/07 05:06:07;;;;;;;10.20;1.33;;;3.30;99.90;;;;;;6281448;22;20082;-76
2023/03/07 05:08:33;;;;;;;8.07;1.02;;;3.30;99.90;;;;;;6281492;22;20015;-76
2023/03/07 05:10:59;;;;;;;8.63;1.52;;;3.30;99.90;;;;;;6282166;22;20038;-75
2023/03/07 05:13:25;;;;;;;7.45;2.47;;;3.30;99.90;;;;;;6281684;22;20011;-76
2023/03/07 05:15:52;;;;;;;11.18;1.88;;;3.30;99.90;;;;;;6309546;22;20019;-75
2023/03/07 05:18:18;;;;;;;6.25;0.88;;;3.30;99.90;;;;;;6309104;22;20003;-76
2023/03/07 05:20:43;;;;;;;9.88;1.20;;;3.30;99.90;;;;;;6282802;22;20087;-76
2023/03/07 05:23:09;;;;;;;11.48;1.90;;;3.30;99.90;;;;;;6281936;22;20344;-76
2023/03/07 05:25:35;;;;;;;9.23;1.45;;;3.30;99.90;;;;;;6256764;22;20022;-75
2023/03/07 05:28:00;;;;;;;7.88;1.10;;;3.30;99.90;;;;;;6309144;22;20016;-76
2023/03/07 05:30:26;;;;;;;9.25;1.45;;;3.30;99.90;;;;;;6281607;22;20015;-75
2023/03/07 05:32:51;;;;;;;8.25;1.60;;;3.30;99.90;;;;;;6309992;22;20011;-76
2023/03/07 05:35:18;;;;;;;10.07;1.48;;;3.30;99.90;;;;;;6308871;22;20344;-76
2023/03/07 05:37:44;;;;;;;14.45;3.25;;;3.30;99.90;;;;;;6281493;22;20011;-77
2023/03/07 05:40:10;;;;;;;13.27;1.65;;;3.30;99.90;;;;;;6309381;22;20379;-76
2023/03/07 05:42:36;;;;;;;5.18;1.02;;;3.40;99.90;;;;;;6281372;22;20381;-75
2023/03/07 05:45:04;;;;;;;11.23;1.58;;;3.40;99.90;;;;;;6281304;22;20333;-76
2023/03/07 05:47:30;;;;;;;8.82;1.08;;;3.40;99.90;;;;;;6255525;22;20086;-76
2023/03/07 05:49:55;;;;;;;15.70;1.45;;;3.40;99.90;;;;;;6281181;22;20088;-76
2023/03/07 05:52:21;;;;;;;3.42;0.65;;;3.40;99.90;;;;;;6281124;22;20011;-76
2023/03/07 05:54:47;;;;;;;4.80;0.90;;;3.30;99.90;;;;;;6281462;22;20090;-75
2023/03/07 05:57:12;;;;;;;7.82;1.17;;;3.10;99.90;;;;;;6281239;22;20022;-75
2023/03/07 05:59:38;;;;;;;7.65;0.90;;;3.00;99.90;;;;;;6308828;22;20043;-76
2023/03/07 06:02:04;;;;;;;7.00;0.82;;;2.90;99.90;;;;;;6281579;22;20064;-76
2023/03/07 06:04:30;;;;;;;7.35;1.30;;;2.90;99.90;;;;;;6281235;22;20103;-75
2023/03/07 06:06:55;;;;;;;4.65;0.90;;;2.80;99.90;;;;;;6281364;22;20027;-76
2023/03/07 06:09:22;;;;;;;7.38;1.38;;;2.80;99.90;;;;;;6281738;22;20011;-77
2023/03/07 06:11:48;;;;;;;12.00;1.25;;;2.80;99.90;;;;;;6281388;22;20015;-76
2023/03/07 06:14:14;;;;;;;5.63;0.95;;;2.80;99.90;;;;;;6309206;22;20382;-76
2023/03/07 06:16:39;;;;;;;6.13;0.90;;;2.80;99.90;;;;;;6281402;22;20421;-76
2023/03/07 06:19:05;;;;;;;6.95;1.58;;;2.80;99.90;;;;;;6281380;22;20455;-77
2023/03/07 06:21:31;;;;;;;7.32;1.27;;;2.80;99.90;;;;;;6308088;22;20018;-75
2023/03/07 06:23:56;;;;;;;10.07;1.25;;;2.90;99.90;;;;;;6280944;22;20019;-76
2023/03/07 06:26:22;;;;;;;11.95;2.33;;;2.90;99.90;;;;;;6255253;22;20451;-77
2023/03/07 06:28:49;;;;;;;11.82;1.15;;;2.90;99.90;;;;;;6255441;22;20139;-76
2023/03/07 06:31:16;;;;;;;11.00;1.38;;;2.90;99.90;;;;;;6280745;22;20007;-75
2023/03/07 06:33:42;;;;;;;11.48;1.10;;;3.00;99.90;;;;;;6280529;22;20007;-76
2023/03/07 06:36:11;;;;;;;8.18;1.40;;;3.10;99.90;;;;;;6308494;22;20102;-76
2023/03/07 06:38:37;;;;;;;10.82;1.48;;;3.10;99.90;;;;;;6280551;22;20022;-76
2023/03/07 06:41:03;;;;;;;12.85;1.58;;;3.20;99.90;;;;;;6280431;22;20347;-77
2023/03/07 06:43:29;;;;;;;8.98;1.60;;;3.20;99.90;;;;;;6280651;22;20094;-75
2023/03/07 06:45:54;;;;;;;19.25;1.58;;;3.20;99.90;;;;;;6280911;22;20007;-75
2023/03/07 06:48:20;;;;;;;7.53;1.08;;;3.30;99.90;;;;;;6255142;22;20023;-76
2023/03/07 06:50:46;;;;;;;10.52;1.23;;;3.30;99.90;;;;;;6307904;22;20090;-75
2023/03/07 06:53:11;;;;;;;10.60;1.30;;;3.20;99.90;;;;;;6308201;22;20400;-75
2023/03/07 06:55:37;;;;;;;9.23;1.38;;;3.20;99.90;;;;;;6280783;22;20058;-77
2023/03/07 06:58:03;;;;;;;11.93;1.42;;;3.20;99.90;;;;;;6280655;22;20448;-77
2023/03/07 07:00:29;;;;;;;7.78;1.23;;;3.20;99.90;;;;;;6308159;22;20007;-76
2023/03/07 07:02:54;;;;;;;34.05;3.42;;;3.20;99.90;;;;;;6280762;22;20022;-76
2023/03/07 07:05:20;;;;;;;12.52;1.98;;;3.20;99.90;;;;;;6280447;22;20011;-76
2023/03/07 07:07:46;;;;;;;10.43;2.47;;;3.20;99.90;;;;;;6280769;22;20111;-77
2023/03/07 07:10:12;;;;;;;10.23;1.45;;;3.20;99.90;;;;;;6280488;22;20015;-76
2023/03/07 07:12:38;;;;;;;14.68;1.73;;;3.20;99.90;;;;;;6255216;22;20034;-77
2023/03/07 07:15:04;;;;;;;10.27;2.00;;;3.30;99.90;;;;;;6280731;22;20061;-77
2023/03/07 07:17:31;;;;;;;9.85;2.58;;;3.30;99.90;;;;;;6280439;22;20011;-77
2023/03/07 07:19:56;;;;;;;9.13;2.03;;;3.30;99.90;;;;;;6307797;22;20049;-76
2023/03/07 07:22:23;;;;;;;13.32;2.35;;;3.30;99.90;;;;;;6280759;22;20007;-76
2023/03/07 07:24:49;;;;;;;7.90;2.00;;;3.30;99.90;;;;;;6307829;22;20011;-77
2023/03/07 07:27:14;;;;;;;9.73;1.92;;;3.30;99.90;;;;;;6308258;22;20035;-76
2023/03/07 07:29:40;;;;;;;13.88;1.38;;;3.30;99.90;;;;;;6280228;22;20318;-77
2023/03/07 07:32:06;;;;;;;10.65;1.60;;;3.30;99.90;;;;;;6280242;22;20094;-76
2023/03/07 07:34:32;;;;;;;11.60;2.22;;;3.30;99.90;;;;;;6308120;22;20378;-75
2023/03/07 07:36:58;;;;;;;10.77;1.55;;;3.30;99.90;;;;;;6280903;22;20029;-74
2023/03/07 07:39:23;;;;;;;8.88;1.65;;;3.30;99.90;;;;;;6307783;22;20498;-77
2023/03/07 07:41:49;;;;;;;11.30;2.10;;;3.30;99.90;;;;;;6280390;22;20007;-76
2023/03/07 07:44:15;;;;;;;8.63;2.03;;;3.30;99.90;;;;;;6308613;22;20007;-76
2023/03/07 07:46:40;;;;;;;6.63;1.20;;;3.40;99.90;;;;;;6307537;22;20014;-77
2023/03/07 07:49:06;;;;;;;9.90;1.50;;;3.30;99.90;;;;;;6280637;22;20025;-75
2023/03/07 07:51:32;;;;;;;13.45;1.60;;;3.30;99.90;;;;;;6308450;22;20004;-76
2023/03/07 07:53:58;;;;;;;11.73;1.38;;;3.40;99.90;;;;;;6280155;22;20089;-75
2023/03/07 07:56:24;;;;;;;12.50;1.55;;;3.40;99.90;;;;;;6307898;22;20018;-76
2023/03/07 07:58:50;;;;;;;11.63;1.65;;;3.40;99.90;;;;;;6307766;22;20034;-76
2023/03/07 08:01:21;;;;;;;5.80;1.38;;;3.40;99.90;;;;;;6275037;22;20011;-77
2023/03/07 08:03:48;;;;;;;8.95;1.35;;;3.50;99.90;;;;;;6249749;22;20464;-75
2023/03/07 08:06:21;;;;;;;11.00;1.55;;;3.50;99.90;;;;;;6277065;22;20138;-77
2023/03/07 08:08:48;;;;;;;11.07;1.55;;;3.60;99.90;;;;;;6277190;22;20015;-75
2023/03/07 08:11:14;;;;;;;8.70;1.13;;;3.60;99.90;;;;;;6275757;22;20372;-76
2023/03/07 08:13:40;;;;;;;9.02;1.50;;;3.60;99.90;;;;;;6277314;22;20015;-76
2023/03/07 08:16:18;;;;;;;7.85;1.17;;;3.60;99.90;;;;;;6277702;22;20345;-76
2023/03/07 08:18:52;;;;;;;7.07;1.10;;;3.70;99.90;;;;;;6279724;22;20018;-76
2023/03/07 08:21:18;;;;;;;11.20;1.52;;;3.70;99.90;;;;;;6277142;22;20007;-77
2023/03/07 08:23:43;;;;;;;5.57;1.08;;;3.80;99.90;;;;;;6277308;22;20398;-75
2023/03/07 08:26:12;;;;;;;8.65;1.33;;;3.80;99.90;;;;;;6277792;22;20020;-75
2023/03/07 08:28:38;;;;;;;8.43;1.38;;;3.80;99.90;;;;;;6277267;22;20023;-75
2023/03/07 08:31:08;;;;;;;8.27;1.15;;;3.90;99.90;;;;;;6276837;22;20012;-77
2023/03/07 08:33:34;;;;;;;5.60;1.20;;;3.90;99.90;;;;;;6277003;22;20046;-76
2023/03/07 08:36:00;;;;;;;4.03;0.73;;;3.90;99.90;;;;;;6279070;22;20333;-77
2023/03/07 08:38:25;;;;;;;5.72;1.42;;;3.90;99.90;;;;;;6277185;22;20507;-76
2023/03/07 08:40:51;;;;;;;3.78;0.90;;;3.90;99.90;;;;;;6276905;22;20031;-76
2023/03/07 08:43:16;;;;;;;5.22;1.00;;;3.90;99.90;;;;;;6277042;22;20028;-77
2023/03/07 08:45:42;;;;;;;5.20;1.10;;;4.00;99.90;;;;;;6276986;22;20467;-75
2023/03/07 08:48:09;;;;;;;3.80;0.80;;;4.00;99.90;;;;;;6278032;22;20332;-75
2023/03/07 08:50:35;;;;;;;6.65;1.35;;;3.90;99.90;;;;;;6278508;22;20438;-76
2023/03/07 08:53:01;;;;;;;6.60;1.08;;;3.90;99.90;;;;;;6276723;22;20376;-73
2023/03/07 08:55:26;;;;;;;6.10;1.30;;;3.90;99.90;;;;;;6275359;22;20095;-76
2023/03/07 08:57:52;;;;;;;4.28;1.13;;;3.90;99.90;;;;;;6276794;22;20011;-76
2023/03/07 09:00:18;;;;;;;6.93;1.00;;;3.90;99.90;;;;;;6276444;22;20066;-77
2023/03/07 09:02:44;;;;;;;6.93;1.08;;;3.90;99.90;;;;;;6307629;22;20007;-77
2023/03/07 09:05:09;;;;;;;3.63;0.70;;;4.00;99.90;;;;;;6279506;22;20021;-76
2023/03/07 09:07:35;;;;;;;7.20;0.88;;;4.00;99.90;;;;;;6279455;22;20019;-75
2023/03/07 09:10:01;;;;;;;5.60;0.70;;;4.10;99.90;;;;;;6278995;22;20022;-76
2023/03/07 09:12:26;;;;;;;9.13;1.05;;;4.10;99.90;;;;;;6279735;22;20056;-77
2023/03/07 09:14:53;;;;;;;4.57;0.90;;;4.20;99.90;;;;;;6280722;22;20015;-76
2023/03/07 09:17:18;;;;;;;4.03;0.60;;;4.20;99.90;;;;;;6281665;22;20011;-77
2023/03/07 09:19:44;;;;;;;3.45;0.93;;;4.20;99.90;;;;;;6282421;22;20098;-76
2023/03/07 09:22:09;;;;;;;4.90;0.60;;;4.20;99.90;;;;;;6281889;22;20007;-77
2023/03/07 09:24:35;;;;;;;3.45;0.55;;;4.20;99.90;;;;;;6282049;22;20025;-77
2023/03/07 09:27:01;;;;;;;5.80;0.85;;;4.20;99.90;;;;;;6282128;22;20391;-76
2023/03/07 09:29:26;;;;;;;7.88;0.90;;;4.20;99.90;;;;;;6282015;22;20018;-76
2023/03/07 09:31:52;;;;;;;7.00;0.70;;;4.00;99.90;;;;;;6282447;22;20047;-75
2023/03/07 09:34:18;;;;;;;3.85;0.75;;;3.50;99.90;;;;;;6309361;22;20011;-77
2023/03/07 09:36:44;;;;;;;5.50;0.85;;;3.00;99.90;;;;;;6282165;22;20064;-76
2023/03/07 09:39:13;;;;;;;3.22;0.60;;;2.80;99.90;;;;;;6281874;22;20340;-75
2023/03/07 09:41:41;;;;;;;10.43;1.15;;;2.60;99.90;;;;;;6281568;22;20060;-76
2023/03/07 09:44:19;;;;;;;12.50;1.10;;;2.60;99.90;;;;;;6256424;22;20451;-75
2023/03/07 09:46:53;;;;;;;7.50;0.82;;;2.60;99.90;;;;;;6281388;22;20318;-77
2023/03/07 09:49:30;;;;;;;6.80;1.10;;;2.70;99.90;;;;;;6255942;22;20137;-76
2023/03/07 09:51:58;;;;;;;10.07;1.60;;;2.70;99.90;;;;;;6281148;22;20038;-77
2023/03/07 09:54:43;;;;;;;8.30;1.20;;;2.90;99.90;;;;;;6281898;22;20039;-77
2023/03/07 09:57:21;;;;;;;7.32;1.30;;;2.90;99.90;;;;;;6281415;22;20015;-76
2023/03/07 10:00:18;;;;;;;9.68;1.77;;;3.00;99.90;;;;;;6309871;22;20015;-76
2023/03/07 10:03:12;;;;;;;8.38;1.60;;;3.20;99.90;;;;;;6274682;22;20339;-77
2023/03/07 10:05:47;;;;;;;12.07;1.55;;;3.30;99.90;;;;;;6276163;22;20016;-77
2023/03/07 10:08:25;;;;;;;9.30;1.10;;;3.40;99.90;;;;;;6279277;22;20012;-73
2023/03/07 10:11:33;;;;;;;7.13;1.20;;;3.40;99.90;;;;;;6283432;22;20012;-75
2023/03/07 10:14:17;;;;;;;6.88;0.90;;;3.40;99.90;;;;;;6286212;22;20090;-75
2023/03/07 10:16:54;;;;;;;5.53;1.20;;;3.40;99.90;;;;;;6279898;22;20015;-77
2023/03/07 10:19:22;;;;;;;6.47;1.20;;;3.40;99.90;;;;;;6276904;22;20315;-76
2023/03/07 10:22:04;;;;;;;5.20;1.20;;;3.50;99.90;;;;;;6276473;22;20011;-77
2023/03/07 10:24:54;;;;;;;12.10;2.35;;;3.60;99.90;;;;;;6276353;22;20015;-77
2023/03/07 10:27:25;;;;;;;8.95;1.25;;;3.70;99.90;;;;;;6276663;22;20015;-77
2023/03/07 10:29:54;;;;;;;9.05;1.35;;;3.80;99.90;;;;;;6278065;22;20015;-76
2023/03/07 10:32:41;;;;;;;8.60;1.58;;;3.80;99.90;;;;;;6277973;22;20082;-77
2023/03/07 10:35:10;;;;;;;6.50;1.33;;;3.90;99.90;;;;;;6275821;22;20019;-77
2023/03/07 10:38:00;;;;;;;5.90;1.30;;;4.00;99.90;;;;;;6276566;22;20023;-76
2023/03/07 10:40:39;;;;;;;6.72;1.00;;;4.10;99.90;;;;;;6276232;22;20016;-77
2023/03/07 10:43:05;;;;;;;5.72;0.95;;;4.20;99.90;;;;;;6276150;22;20065;-76
2023/03/07 10:45:32;;;;;;;5.78;1.13;;;4.30;99.90;;;;;;6275973;22;20016;-77
2023/03/07 10:48:14;;;;;;;6.50;1.23;;;4.40;99.90;;;;;;6276075;22;20100;-77
2023/03/07 10:51:02;;;;;;;6.85;1.15;;;4.40;99.90;;;;;;6278209;22;20018;-78
2023/03/07 10:53:33;;;;;;;8.23;1.05;;;4.50;99.90;;;;;;6275806;22;20019;-75
2023/03/07 10:56:14;;;;;;;6.03;0.93;;;4.60;99.90;;;;;;6275698;22;20026;-76
2023/03/07 10:59:01;;;;;;;7.30;1.08;;;4.70;99.90;;;;;;6277237;22;20345;-75
2023/03/07 11:01:29;;;;;;;6.97;0.85;;;4.70;99.90;;;;;;6275641;22;20019;-76
2023/03/07 11:04:03;;;;;;;6.82;0.95;;;4.80;99.90;;;;;;6277496;22;20103;-74
2023/03/07 11:06:51;;;;;;;5.47;1.33;;;4.90;99.90;;;;;;6275735;22;20022;-77
2023/03/07 11:09:27;;;;;;;13.23;1.02;;;5.00;99.90;;;;;;6275858;22;20011;-76
2023/03/07 11:11:59;;;;;;;6.32;1.35;;;5.00;99.90;;;;;;6275756;22;20011;-75
2023/03/07 11:14:28;;;;;;;12.00;1.55;;;5.10;99.90;;;;;;6275550;22;20012;-77
2023/03/07 11:17:01;;;;;;;6.82;0.98;;;5.00;99.90;;;;;;6275523;22;20023;-75
2023/03/07 11:19:36;;;;;;;10.75;1.15;;;5.00;99.90;;;;;;6276118;22;20019;-75
2023/03/07 11:22:15;;;;;;;9.75;1.52;;;5.00;99.90;;;;;;6277356;22;20082;-76
2023/03/07 11:24:48;;;;;;;8.85;1.20;;;5.00;99.90;;;;;;6275739;22;20026;-75
2023/03/07 11:27:21;;;;;;;9.55;1.60;;;5.00;99.90;;;;;;6275765;22;20012;-76
2023/03/07 11:30:14;;;;;;;10.23;1.83;;;5.10;99.90;;;;;;6275841;22;20012;-77
2023/03/07 11:32:44;;;;;;;6.65;1.58;;;5.20;99.90;;;;;;6278236;22;20008;-76
2023/03/07 11:35:20;;;;;;;8.07;1.20;;;5.30;99.90;;;;;;6277417;22;20023;-75
2023/03/07 11:38:18;;;;;;;7.78;1.25;;;5.40;99.90;;;;;;6250351;22;20091;-75
2023/03/07 11:40:58;;;;;;;12.38;2.05;;;5.40;99.90;;;;;;6277706;22;20065;-74
2023/03/07 11:43:58;;;;;;;7.78;1.48;;;5.50;99.90;;;;;;6275669;22;20015;-76
2023/03/07 11:46:38;;;;;;;14.20;2.67;;;5.40;99.90;;;;;;6275574;22;20020;-75
2023/03/07 11:49:03;;;;;;;10.85;1.70;;;5.40;99.90;;;;;;6277719;22;20091;-75
2023/03/07 11:51:53;;;;;;;10.15;2.03;;;5.30;99.90;;;;;;6277051;22;20035;-75
2023/03/07 11:54:44;;;;;;;7.90;1.95;;;5.20;99.90;;;;;;6275731;22;20050;-75
2023/03/07 11:57:40;;;;;;;9.00;1.92;;;5.20;99.90;;;;;;6250578;22;20018;-75
2023/03/07 12:00:47;;;;;;;5.75;1.65;;;5.10;99.90;;;;;;6275349;22;20019;-75
2023/03/07 12:03:50;;;;;;;7.15;1.52;;;5.00;99.90;;;;;;6245514;22;20012;-75
2023/03/07 12:06:43;;;;;;;9.43;1.23;;;4.90;99.90;;;;;;6249958;22;20083;-75
2023/03/07 12:09:12;;;;;;;11.05;2.75;;;5.00;99.90;;;;;;6277000;22;20065;-75
2023/03/07 12:11:52;;;;;;;8.60;1.60;;;5.00;99.90;;;;;;6275639;22;20018;-74
2023/03/07 12:14:23;;;;;;;6.40;2.60;;;4.90;99.90;;;;;;6275346;22;20012;-76
2023/03/07 12:16:55;;;;;;;9.93;1.40;;;4.90;99.90;;;;;;6275239;22;20016;-75
2023/03/07 12:19:27;;;;;;;11.45;1.25;;;4.80;99.90;;;;;;6275018;22;20047;-74
2023/03/07 12:22:21;;;;;;;8.82;1.20;;;4.70;99.90;;;;;;6275189;22;20016;-74
2023/03/07 12:24:58;;;;;;;10.60;1.40;;;4.70;99.90;;;;;;6277533;22;20069;-75
2023/03/07 12:27:49;;;;;;;8.63;0.90;;;4.70;99.90;;;;;;6249966;22;20016;-72
2023/03/07 12:30:20;;;;;;;4.15;0.88;;;4.60;99.90;;;;;;6274698;22;20349;-75
2023/03/07 12:32:48;;;;;;;6.95;1.10;;;4.70;99.90;;;;;;6275508;22;20015;-74
2023/03/07 12:35:36;;;;;;;6.00;1.50;;;4.70;99.90;;;;;;6275511;22;20345;-76
2023/03/07 12:38:23;;;;;;;8.60;0.98;;;4.80;99.90;;;;;;6274894;22;20018;-75
2023/03/07 12:41:03;;;;;;;9.90;1.20;;;4.90;99.90;;;;;;6277217;22;20012;-75
2023/03/07 12:44:04;;;;;;;8.60;2.28;;;5.00;99.90;;;;;;6275890;22;20057;-76
2023/03/07 12:46:39;;;;;;;9.77;1.13;;;5.10;99.90;;;;;;6275458;22;20043;-75
2023/03/07 12:49:30;;;;;;;11.88;2.78;;;5.10;99.90;;;;;;6275539;22;20399;-75
2023/03/07 12:52:00;;;;;;;7.82;1.50;;;5.30;99.90;;;;;;6277043;22;20014;-75
2023/03/07 12:54:35;;;;;;;7.13;1.40;;;5.30;99.90;;;;;;6276121;22;20038;-75
2023/03/07 12:57:24;;;;;;;8.90;1.42;;;5.30;99.90;;;;;;6251116;22;20020;-75
2023/03/07 12:59:50;;;;;;;8.48;1.10;;;5.40;99.90;;;;;;6277728;22;20015;-74
2023/03/07 13:02:23;;;;;;;6.40;1.05;;;5.40;99.90;;;;;;6304711;22;20019;-76
2023/03/07 13:04:49;;;;;;;5.43;0.98;;;5.40;99.90;;;;;;6257094;22;20122;-76
2023/03/07 13:07:21;;;;;;;9.23;1.40;;;5.40;99.90;;;;;;6282550;22;20038;-75
2023/03/07 13:09:49;;;;;;;7.78;2.05;;;5.40;99.90;;;;;;6282498;22;20018;-78
2023/03/07 13:12:15;;;;;;;11.07;2.78;;;5.40;99.90;;;;;;6282698;22;20017;-75
2023/03/07 13:14:43;;;;;;;6.22;1.85;;;5.40;99.90;;;;;;6282289;22;20047;-74
2023/03/07 13:17:11;;;;;;;5.45;1.48;;;5.40;99.90;;;;;;6309107;22;20437;-74
2023/03/07 13:19:37;;;;;;;5.30;1.60;;;5.30;99.90;;;;;;6281865;22;20436;-74
2023/03/07 13:22:15;;;;;;;7.30;1.77;;;5.10;99.90;;;;;;6282642;22;20078;-75
2023/03/07 13:24:51;;;;;;;9.95;1.70;;;5.10;99.90;;;;;;6282565;22;20344;-74
2023/03/07 13:27:40;;;;;;;7.30;1.13;;;5.00;99.90;;;;;;6283381;22;20070;-74
2023/03/07 13:30:12;;;;;;;9.88;1.10;;;5.00;99.90;;;;;;6282641;22;20015;-75
2023/03/07 13:32:50;;;;;;;7.47;1.23;;;5.10;99.90;;;;;;6310147;22;20064;-75
2023/03/07 13:35:24;;;;;;;7.57;1.15;;;5.20;99.90;;;;;;6282286;22;20088;-75
2023/03/07 13:38:02;;;;;;;5.53;1.05;;;5.30;99.90;;;;;;6283506;22;20019;-77
2023/03/07 13:40:33;;;;;;;8.68;1.85;;;5.30;99.90;;;;;;6282313;22;20408;-76
2023/03/07 13:43:03;;;;;;;8.43;1.35;;;5.30;99.90;;;;;;6282437;22;20088;-76
2023/03/07 13:45:38;;;;;;;6.00;0.93;;;5.30;99.90;;;;;;6282193;22;20007;-75
2023/03/07 13:48:30;;;;;;;6.40;0.90;;;5.30;99.90;;;;;;6282204;22;20018;-76
2023/03/07 13:51:01;;;;;;;8.57;2.22;;;5.40;99.90;;;;;;6281293;22;20015;-76
2023/03/07 13:53:26;;;;;;;4.25;0.80;;;5.50;99.90;;;;;;6256779;22;20015;-76
2023/03/07 13:55:58;;;;;;;5.65;0.98;;;5.60;99.90;;;;;;6282465;22;20046;-76
2023/03/07 13:58:33;;;;;;;6.13;1.67;;;5.50;99.90;;;;;;6282186;22;20018;-77
2023/03/07 14:01:11;;;;;;;3.33;0.63;;;5.50;99.90;;;;;;6276872;22;20090;-77
2023/03/07 14:03:42;;;;;;;3.95;0.70;;;5.40;99.90;;;;;;6278948;22;20012;-74
2023/03/07 14:06:17;;;;;;;4.95;0.73;;;5.40;99.90;;;;;;6279079;22;20011;-75
2023/03/07 14:08:43;;;;;;;6.18;0.80;;;5.40;99.90;;;;;;6277717;22;20020;-76
2023/03/07 14:11:22;;;;;;;6.65;1.42;;;5.40;99.90;;;;;;6278666;22;20329;-75
2023/03/07 14:14:05;;;;;;;13.32;0.80;;;5.50;99.90;;;;;;6278620;22;20019;-76
2023/03/07 14:16:39;;;;;;;5.18;0.90;;;5.60;99.90;;;;;;6279254;22;20019;-75
2023/03/07 14:19:33;;;;;;;1.88;0.70;;;5.60;99.90;;;;;;6278411;22;20062;-75
2023/03/07 14:22:02;;;;;;;6.07;0.85;;;5.70;99.90;;;;;;6276812;22;20015;-75
2023/03/07 14:24:28;;;;;;;6.05;0.70;;;5.60;99.90;;;;;;6277222;22;20023;-76
2023/03/07 14:27:01;;;;;;;4.20;0.60;;;5.70;99.90;;;;;;6276920;22;20022;-76
2023/03/07 14:29:29;;;;;;;8.65;0.90;;;5.60;99.90;;;;;;6278529;22;20016;-76
2023/03/07 14:31:58;;;;;;;6.65;1.85;;;5.60;99.90;;;;;;6276830;22;20016;-76
2023/03/07 14:34:28;;;;;;;3.08;0.65;;;5.60;99.90;;;;;;6276901;22;20057;-76
2023/03/07 14:36:58;;;;;;;6.40;0.95;;;5.70;99.90;;;;;;6252554;22;20211;-75
2023/03/07 14:39:45;;;;;;;4.85;0.70;;;5.60;99.90;;;;;;6276708;22;20437;-76
2023/03/07 14:42:32;;;;;;;4.72;0.85;;;5.60;99.90;;;;;;6276739;22;20015;-75
2023/03/07 14:45:20;;;;;;;3.63;0.60;;;5.60;99.90;;;;;;6278526;22;20047;-76
2023/03/07 14:48:00;;;;;;;7.40;1.05;;;5.80;99.90;;;;;;6278228;22;20464;-76
2023/03/07 14:50:28;;;;;;;5.85;0.95;;;5.90;99.90;;;;;;6276560;22;20065;-76
2023/03/07 14:53:12;;;;;;;4.65;0.70;;;5.90;99.90;;;;;;6278669;22;20026;-76
2023/03/07 14:55:41;;;;;;;2.15;0.40;;;5.80;99.90;;;;;;6278401;22;20015;-75
2023/03/07 14:58:16;;;;;;;5.63;0.70;;;5.70;99.90;;;;;;6276712;22;20352;-76
2023/03/07 15:00:41;;;;;;;3.22;0.65;;;5.50;99.90;;;;;;6276560;22;20015;-76
2023/03/07 15:03:11;;;;;;;4.97;0.70;;;5.40;99.90;;;;;;6276661;22;20095;-76
2023/03/07 15:05:47;;;;;;;3.90;0.65;;;5.30;99.90;;;;;;6277199;22;20091;-75
2023/03/07 15:08:23;;;;;;;;;;;5.20;99.90;;;;;;6277057;22;20065;-76
2023/03/07 15:11:19;;;;;;;3.17;0.60;;;5.20;99.90;;;;;;6250768;22;19917;-75
2023/03/07 15:13:50;;;;;;;9.88;1.08;;;5.10;99.90;;;;;;6277901;22;20015;-76
2023/03/07 15:16:29;;;;;;;2.80;0.60;;;5.20;99.90;;;;;;6277912;22;20015;-71
2023/03/07 15:18:59;;;;;;;5.65;0.80;;;5.10;99.90;;;;;;6283239;22;20338;-71
2023/03/07 15:21:35;;;;;;;4.75;1.17;;;5.10;99.90;;;;;;6281028;22;20008;-75
2023/03/07 15:24:02;;;;;;;4.25;0.88;;;5.10;99.90;;;;;;6277813;22;20094;-74
2023/03/07 15:26:28;;;;;;;11.48;1.98;;;5.00;99.90;;;;;;6301777;22;20018;-74
2023/03/07 15:28:59;;;;;;;7.13;1.73;;;5.10;99.90;;;;;;6276686;22;20346;-75
2023/03/07 15:31:27;;;;;;;4.32;1.10;;;5.00;99.90;;;;;;6276161;22;20135;-75
2023/03/07 15:33:52;;;;;;;8.23;1.33;;;5.00;99.90;;;;;;6276266;22;20516;-75
2023/03/07 15:36:23;;;;;;;5.32;1.00;;;5.10;99.90;;;;;;6275858;22;20062;-76
2023/03/07 15:38:50;;;;;;;9.23;1.20;;;5.10;99.90;;;;;;6277770;22;20325;-76
2023/03/07 15:41:35;;;;;;;5.75;0.95;;;5.10;99.90;;;;;;6250408;22;20016;-76
2023/03/07 15:44:10;;;;;;;9.50;3.40;;;5.00;99.90;;;;;;6276463;22;20051;-76
2023/03/07 15:46:51;;;;;;;7.15;1.88;;;5.00;99.90;;;;;;6275607;22;20437;-76
2023/03/07 15:49:25;;;;;;;6.75;1.80;;;5.00;99.90;;;;;;6277750;22;20016;-76
2023/03/07 15:51:54;;;;;;;4.85;0.77;;;4.90;99.90;;;;;;6276084;22;20014;-75
2023/03/07 15:54:38;;;;;;;2.30;0.60;;;5.20;99.90;;;;;;6275804;22;20376;-76
2023/03/07 15:57:27;;;;;;;4.95;0.90;;;5.50;99.90;;;;;;6275845;22;20506;-76
2023/03/07 16:00:05;;;;;;;7.55;1.75;;;6.10;99.90;;;;;;6275797;22;20455;-75
2023/03/07 16:02:31;;;;;;;5.13;1.27;;;6.50;99.90;;;;;;6275111;22;20015;-75
2023/03/07 16:05:02;;;;;;;10.93;1.35;;;6.70;99.90;;;;;;6277411;22;20310;-75
2023/03/07 16:07:27;;;;;;;4.75;0.80;;;6.70;99.90;;;;;;6277985;22;20011;-76
2023/03/07 16:09:53;;;;;;;5.15;1.23;;;6.60;99.90;;;;;;6275408;22;20086;-75
2023/03/07 16:12:22;;;;;;;7.25;1.38;;;6.90;99.90;;;;;;6277541;22;20004;-76
2023/03/07 16:14:50;;;;;;;5.57;1.10;;;7.30;99.90;;;;;;6275819;22;20027;-77
2023/03/07 16:17:22;;;;;;;5.40;1.00;;;7.30;99.90;;;;;;6275801;22;20443;-74
2023/03/07 16:19:47;;;;;;;5.25;0.90;;;7.50;99.90;;;;;;6278336;22;20372;-75
2023/03/07 16:22:15;;;;;;;5.70;0.98;;;7.70;99.90;;;;;;6275615;22;20062;-77
2023/03/07 16:24:41;;;;;;;5.00;1.35;;;7.30;99.90;;;;;;6276890;22;20008;-77
2023/03/07 16:27:17;;;;;;;7.38;0.95;;;6.90;99.90;;;;;;6276872;22;20015;-76
2023/03/07 16:29:44;;;;;;;5.47;1.00;;;6.40;99.90;;;;;;6275446;22;20092;-76
2023/03/07 16:32:12;;;;;;;6.13;2.17;;;5.80;99.90;;;;;;6276267;22;20015;-75
2023/03/07 16:34:38;;;;;;;4.60;1.30;;;5.40;99.90;;;;;;6276919;22;20039;-75
2023/03/07 16:37:04;;;;;;;5.03;1.65;;;5.10;99.90;;;;;;6277173;22;20012;-79
2023/03/07 16:39:30;;;;;;;4.25;1.10;;;4.90;99.90;;;;;;6277646;22;20099;-76
2023/03/07 16:41:56;;;;;;;4.80;1.20;;;4.70;99.90;;;;;;6279160;22;20073;-76
2023/03/07 16:44:22;;;;;;;5.03;0.98;;;4.50;99.90;;;;;;6279072;22;20050;-76
2023/03/07 16:47:07;;;;;;;8.23;0.80;;;4.40;99.90;;;;;;6277444;22;20431;-75
2023/03/07 16:49:33;;;;;;;4.45;0.90;;;4.30;99.90;;;;;;6251489;22;20095;-74
2023/03/07 16:51:58;;;;;;;8.77;0.70;;;4.30;99.90;;;;;;6278416;22;20039;-75
2023/03/07 16:54:24;;;;;;;3.45;0.70;;;4.20;99.90;;;;;;6278309;22;20434;-75
2023/03/07 16:56:54;;;;;;;3.28;0.70;;;4.10;99.90;;;;;;6278902;22;20091;-76
2023/03/07 16:59:22;;;;;;;3.72;0.50;;;4.00;99.90;;;;;;6278904;22;20014;-75
2023/03/07 17:01:50;;;;;;;4.30;0.70;;;3.80;99.90;;;;;;6277289;22;20095;-76
2023/03/07 17:04:16;;;;;;;5.75;0.68;;;3.70;99.90;;;;;;6277083;22;20016;-74
2023/03/07 17:06:42;;;;;;;2.47;0.50;;;3.60;99.90;;;;;;6276919;22;20046;-76
2023/03/07 17:09:10;;;;;;;1.25;0.50;;;3.50;99.90;;;;;;6276882;22;20019;-75
2023/03/07 17:11:48;;;;;;;4.25;0.40;;;3.40;99.90;;;;;;6277401;22;20068;-76
2023/03/07 17:14:15;;;;;;;6.70;0.80;;;3.40;99.90;;;;;;6277231;22;20015;-76
2023/03/07 17:16:49;;;;;;;3.88;0.90;;;3.30;99.90;;;;;;6276939;22;20345;-76